Time;durP1;ratioP1;P1;durP2;ratioP2;P2;SDS_P1;SDS_P2;PMS_P1;PMS_P2;Temp;Humidity;BMP_temperature;BMP_pressure;BME280_temperature;BME280_humidity;BME280_pressure;Samples;Min_cycle;Max_cycle;Signal;HPM_P1;HPM_P2
2021/06/24 00:01:15;;;;;;;19.85;12.00;;;16.50;79.60;;;;;;5050565;28;20880;-76
2021/06/24 00:03:41;;;;;;;19.90;12.60;;;16.60;78.70;;;;;;5051465;28;20441;-76
2021/06/24 00:06:07;;;;;;;16.02;11.60;;;16.70;77.20;;;;;;5038970;28;20409;-76
2021/06/24 00:08:33;;;;;;;18.60;11.30;;;16.70;77.00;;;;;;5041709;28;20402;-76
2021/06/24 00:11:01;;;;;;;13.77;11.85;;;16.60;76.80;;;;;;5043277;28;20387;-75
2021/06/24 00:13:27;;;;;;;16.73;12.30;;;16.50;79.10;;;;;;5028843;28;20410;-78
2021/06/24 00:16:25;;;;;;;16.15;12.18;;;16.50;79.10;;;;;;5015179;28;20379;-76
2021/06/24 00:18:51;;;;;;;19.60;11.75;;;16.50;78.90;;;;;;5047904;28;20382;-76
2021/06/24 00:21:17;;;;;;;17.80;11.65;;;16.50;79.80;;;;;;5043808;28;20449;-74
2021/06/24 00:23:43;;;;;;;12.57;11.10;;;16.60;78.60;;;;;;5042021;28;20952;-76
2021/06/24 00:26:08;;;;;;;16.65;11.80;;;16.50;80.30;;;;;;5047177;28;20399;-77
2021/06/24 00:28:34;;;;;;;17.95;11.40;;;16.60;80.40;;;;;;5046615;28;20429;-76
2021/06/24 00:30:59;;;;;;;20.30;10.80;;;16.60;76.70;;;;;;5047136;28;20387;-74
2021/06/24 00:33:25;;;;;;;15.70;10.50;;;16.70;77.00;;;;;;5060358;28;20404;-75
2021/06/24 00:35:52;;;;;;;16.90;10.70;;;16.80;75.50;;;;;;5061951;28;20387;-76
2021/06/24 00:38:18;;;;;;;18.00;11.40;;;16.80;75.60;;;;;;5045288;28;20416;-75
2021/06/24 00:40:44;;;;;;;16.45;10.43;;;16.80;76.30;;;;;;5044549;28;20872;-76
2021/06/24 00:43:13;;;;;;;13.88;9.98;;;16.80;76.50;;;;;;5026416;28;20422;-77
2021/06/24 00:45:39;;;;;;;15.97;10.80;;;16.70;76.60;;;;;;5026928;28;20420;-76
2021/06/24 00:48:09;;;;;;;14.82;9.90;;;16.80;76.00;;;;;;5036753;28;20398;-76
2021/06/24 00:50:38;;;;;;;21.05;11.10;;;16.80;75.70;;;;;;5054069;28;20396;-77
2021/06/24 00:53:04;;;;;;;14.40;10.05;;;16.80;76.10;;;;;;5052817;28;20398;-77
2021/06/24 00:55:48;;;;;;;18.30;11.50;;;16.80;77.20;;;;;;5053793;28;20486;-76
2021/06/24 00:58:16;;;;;;;15.75;10.23;;;16.80;76.70;;;;;;5068357;28;20399;-75
2021/06/24 01:00:44;;;;;;;15.70;10.55;;;16.80;76.10;;;;;;5062087;28;20395;-75
2021/06/24 01:03:10;;;;;;;19.60;11.10;;;16.80;76.10;;;;;;5046603;28;20387;-76
2021/06/24 01:05:37;;;;;;;16.25;9.90;;;16.90;76.20;;;;;;5066502;28;20394;-76
2021/06/24 01:08:05;;;;;;;15.47;10.93;;;16.90;75.00;;;;;;5054437;28;20407;-76
2021/06/24 01:10:30;;;;;;;15.43;10.75;;;16.90;75.40;;;;;;5053272;28;20412;-77
2021/06/24 01:12:56;;;;;;;17.87;10.87;;;16.80;75.00;;;;;;5015336;28;20881;-77
2021/06/24 01:15:23;;;;;;;16.33;11.10;;;16.90;74.80;;;;;;5016126;28;20392;-77
2021/06/24 01:17:49;;;;;;;20.65;11.80;;;16.90;74.80;;;;;;5013831;28;20388;-77
2021/06/24 01:20:17;;;;;;;18.63;10.40;;;16.90;74.20;;;;;;5015229;28;20396;-76
2021/06/24 01:22:43;;;;;;;16.37;10.70;;;16.90;73.70;;;;;;5016644;28;20552;-77
2021/06/24 01:25:08;;;;;;;16.85;10.82;;;16.90;73.00;;;;;;5015361;28;20458;-75
2021/06/24 01:27:34;;;;;;;21.23;11.88;;;16.90;73.20;;;;;;5027959;28;20405;-75
2021/06/24 01:30:00;;;;;;;20.67;11.50;;;16.90;73.70;;;;;;5013639;28;20389;-77
2021/06/24 01:32:29;;;;;;;18.60;11.80;;;16.90;73.40;;;;;;5031111;28;20498;-77
2021/06/24 01:34:55;;;;;;;16.52;11.75;;;16.90;74.10;;;;;;5033294;28;20836;-77
2021/06/24 01:37:21;;;;;;;19.13;11.63;;;16.80;74.50;;;;;;5032755;28;20395;-76
2021/06/24 01:39:47;;;;;;;17.92;11.80;;;16.80;74.90;;;;;;5032472;28;20387;-76
2021/06/24 01:42:16;;;;;;;21.10;12.15;;;16.80;75.50;;;;;;5032480;28;20392;-76
2021/06/24 01:44:41;;;;;;;20.63;12.02;;;16.90;75.00;;;;;;5032731;28;20387;-76
2021/06/24 01:47:09;;;;;;;19.27;11.93;;;16.90;74.70;;;;;;5048411;28;20407;-77
2021/06/24 01:49:35;;;;;;;18.25;11.95;;;16.80;74.80;;;;;;5032993;28;20387;-77
2021/06/24 01:52:01;;;;;;;17.90;12.67;;;16.80;75.50;;;;;;5033741;28;20381;-76
2021/06/24 01:54:26;;;;;;;19.20;12.43;;;16.80;76.90;;;;;;5033083;28;20391;-77
2021/06/24 01:56:52;;;;;;;19.83;12.45;;;16.80;76.30;;;;;;5034032;28;20391;-76
2021/06/24 01:59:18;;;;;;;16.93;12.07;;;16.80;76.70;;;;;;5050139;28;20405;-77
2021/06/24 02:01:43;;;;;;;19.20;13.02;;;16.70;76.70;;;;;;5034296;28;20391;-75
2021/06/24 02:04:10;;;;;;;21.42;13.20;;;16.80;76.10;;;;;;5045147;28;20419;-77
2021/06/24 02:06:36;;;;;;;21.13;12.83;;;16.70;76.90;;;;;;5059051;28;20480;-77
2021/06/24 02:09:03;;;;;;;20.08;14.13;;;16.70;77.00;;;;;;5059882;28;20866;-77
2021/06/24 02:11:29;;;;;;;18.15;13.27;;;16.80;76.50;;;;;;5042871;28;20420;-76
2021/06/24 02:13:54;;;;;;;20.00;13.33;;;16.80;75.60;;;;;;5017296;28;20437;-76
2021/06/24 02:16:20;;;;;;;23.38;13.15;;;16.70;77.20;;;;;;5018432;28;20429;-77
2021/06/24 02:18:46;;;;;;;22.20;13.40;;;16.80;77.20;;;;;;5015893;28;20746;-77
2021/06/24 02:21:11;;;;;;;19.70;13.23;;;16.80;76.00;;;;;;5013734;28;20439;-76
2021/06/24 02:23:37;;;;;;;22.13;13.70;;;16.90;75.90;;;;;;5012000;28;20396;-75
2021/06/24 02:26:02;;;;;;;18.38;12.70;;;16.80;75.80;;;;;;5017952;28;20762;-77
2021/06/24 02:28:28;;;;;;;24.60;14.88;;;16.80;76.00;;;;;;4999385;28;20401;-77
2021/06/24 02:30:54;;;;;;;28.20;14.40;;;16.70;78.60;;;;;;5033538;28;20398;-75
2021/06/24 02:33:20;;;;;;;24.10;14.20;;;16.80;76.10;;;;;;5032436;28;20797;-77
2021/06/24 02:35:48;;;;;;;20.33;14.30;;;16.90;74.90;;;;;;5033026;28;20383;-77
2021/06/24 02:38:14;;;;;;;23.08;14.27;;;16.90;74.90;;;;;;5032176;28;20436;-77
2021/06/24 02:40:40;;;;;;;23.45;14.05;;;16.80;75.70;;;;;;5030902;28;20772;-77
2021/06/24 02:43:05;;;;;;;19.70;13.93;;;16.80;75.30;;;;;;5031859;28;20385;-76
2021/06/24 02:45:31;;;;;;;21.87;14.20;;;16.90;75.80;;;;;;5031749;28;20387;-76
2021/06/24 02:47:57;;;;;;;23.02;14.55;;;16.80;76.00;;;;;;5031860;28;20467;-76
2021/06/24 02:50:25;;;;;;;18.50;14.60;;;16.80;75.90;;;;;;5033025;28;20876;-76
2021/06/24 02:52:51;;;;;;;20.02;14.38;;;16.80;76.70;;;;;;5031945;28;21161;-76
2021/06/24 02:55:16;;;;;;;24.90;15.63;;;16.80;77.60;;;;;;5031677;28;20394;-75
2021/06/24 02:57:43;;;;;;;22.65;14.32;;;16.80;76.60;;;;;;5031575;28;20740;-78
2021/06/24 03:00:10;;;;;;;26.37;15.13;;;16.70;77.20;;;;;;5032003;28;20422;-76
2021/06/24 03:02:36;;;;;;;25.23;15.02;;;16.70;77.40;;;;;;5032184;28;20404;-75
2021/06/24 03:05:02;;;;;;;27.20;14.63;;;16.70;78.40;;;;;;5049346;28;20473;-75
2021/06/24 03:07:27;;;;;;;22.25;15.45;;;16.70;78.50;;;;;;5033869;28;20773;-74
2021/06/24 03:09:55;;;;;;;24.63;16.00;;;16.70;78.70;;;;;;5051243;28;20487;-75
2021/06/24 03:12:21;;;;;;;21.25;15.75;;;16.60;79.50;;;;;;5036534;28;20395;-75
2021/06/24 03:14:46;;;;;;;27.83;15.73;;;16.70;80.40;;;;;;5032502;28;20387;-74
2021/06/24 03:17:12;;;;;;;26.10;17.10;;;16.70;79.10;;;;;;5033208;28;20402;-74
2021/06/24 03:19:37;;;;;;;26.83;15.20;;;16.80;78.00;;;;;;5016030;28;20505;-74
2021/06/24 03:22:03;;;;;;;22.25;15.82;;;16.70;79.00;;;;;;5056184;23;20454;-75
2021/06/24 03:24:29;;;;;;;21.80;15.27;;;16.80;77.60;;;;;;5052144;28;20408;-75
2021/06/24 03:26:54;;;;;;;19.43;14.93;;;16.80;77.30;;;;;;5051710;28;20439;-76
2021/06/24 03:29:20;;;;;;;25.60;16.80;;;16.80;78.00;;;;;;5051090;28;20396;-76
2021/06/24 03:31:45;;;;;;;28.70;17.77;;;16.80;78.90;;;;;;5051221;28;20858;-75
2021/06/24 03:34:11;;;;;;;22.50;15.55;;;16.80;77.00;;;;;;5051442;28;20959;-75
2021/06/24 03:36:37;;;;;;;26.53;16.63;;;16.80;78.70;;;;;;5051770;28;20460;-76
2021/06/24 03:39:03;;;;;;;24.80;15.80;;;16.80;79.40;;;;;;5051326;28;20896;-75
2021/06/24 03:41:29;;;;;;;23.40;15.82;;;16.90;77.30;;;;;;5065633;28;20389;-76
2021/06/24 03:43:55;;;;;;;25.55;16.83;;;16.90;77.60;;;;;;5051164;28;20716;-75
2021/06/24 03:46:24;;;;;;;24.70;16.50;;;17.00;74.60;;;;;;5051221;28;20407;-75
2021/06/24 03:48:51;;;;;;;27.63;16.70;;;17.00;74.80;;;;;;5051511;28;20431;-74
2021/06/24 03:51:17;;;;;;;25.75;17.10;;;17.10;74.50;;;;;;5051849;28;20386;-75
2021/06/24 03:53:43;;;;;;;28.92;18.40;;;17.00;76.10;;;;;;5051923;28;20381;-76
2021/06/24 03:56:10;;;;;;;31.87;16.80;;;17.00;74.90;;;;;;5052183;28;20439;-76
2021/06/24 03:58:36;;;;;;;26.58;16.80;;;17.00;76.10;;;;;;5052093;28;20902;-76
2021/06/24 04:01:01;;;;;;;23.55;16.70;;;17.00;76.10;;;;;;5053300;28;20383;-76
2021/06/24 04:03:27;;;;;;;29.73;16.80;;;17.10;73.40;;;;;;5051383;28;20385;-76
2021/06/24 04:05:53;;;;;;;29.25;16.45;;;17.20;73.00;;;;;;5052695;28;20424;-75
2021/06/24 04:08:18;;;;;;;24.90;15.60;;;17.20;73.70;;;;;;5068200;28;20434;-74
2021/06/24 04:10:44;;;;;;;27.47;16.20;;;17.10;73.90;;;;;;5052836;28;20407;-75
2021/06/24 04:13:09;;;;;;;28.00;16.40;;;17.10;75.80;;;;;;5053224;28;20440;-75
2021/06/24 04:15:35;;;;;;;27.05;16.92;;;17.00;75.80;;;;;;5051992;28;20455;-76
2021/06/24 04:18:07;;;;;;;26.60;17.17;;;16.90;76.30;;;;;;5051645;28;20870;-75
2021/06/24 04:20:33;;;;;;;25.55;16.80;;;17.00;76.20;;;;;;5051423;28;20389;-75
2021/06/24 04:22:59;;;;;;;23.95;16.52;;;16.90;76.40;;;;;;5049869;28;20397;-75
2021/06/24 04:25:25;;;;;;;30.60;16.98;;;16.80;77.40;;;;;;5051872;28;20392;-75
2021/06/24 04:27:52;;;;;;;25.10;18.05;;;16.80;78.80;;;;;;5051109;28;20785;-74
2021/06/24 04:30:18;;;;;;;27.97;17.83;;;16.80;79.10;;;;;;5051045;28;20396;-77
2021/06/24 04:32:45;;;;;;;32.70;18.55;;;16.80;78.70;;;;;;5052666;28;20381;-75
2021/06/24 04:35:11;;;;;;;27.80;17.50;;;16.90;78.10;;;;;;5052321;28;20414;-76
2021/06/24 04:37:37;;;;;;;30.52;17.40;;;16.90;77.90;;;;;;5051372;28;20446;-76
2021/06/24 04:40:05;;;;;;;26.02;18.50;;;16.90;77.40;;;;;;5045682;28;20404;-75
2021/06/24 04:42:31;;;;;;;30.80;18.42;;;16.90;77.30;;;;;;5049292;28;20490;-76
2021/06/24 04:44:56;;;;;;;30.38;18.08;;;16.90;77.80;;;;;;5045877;28;20464;-75
2021/06/24 04:47:22;;;;;;;28.60;18.95;;;16.90;77.90;;;;;;5049880;28;20408;-76
2021/06/24 04:49:48;;;;;;;31.20;18.42;;;16.80;79.40;;;;;;5050628;28;20754;-76
2021/06/24 04:52:15;;;;;;;29.13;18.63;;;16.90;78.30;;;;;;5030732;28;20383;-77
2021/06/24 04:54:41;;;;;;;25.10;18.05;;;16.90;76.70;;;;;;5033486;28;20410;-76
2021/06/24 04:57:07;;;;;;;31.40;18.37;;;16.90;77.00;;;;;;5036833;28;20395;-75
2021/06/24 04:59:32;;;;;;;23.60;17.63;;;17.00;77.70;;;;;;5034768;28;20391;-75
2021/06/24 05:01:58;;;;;;;29.97;18.33;;;17.00;77.00;;;;;;5046385;28;20474;-74
2021/06/24 05:04:24;;;;;;;29.20;18.35;;;17.00;76.60;;;;;;5037975;28;20395;-75
2021/06/24 05:06:52;;;;;;;32.60;18.65;;;16.90;77.10;;;;;;5034662;28;20399;-77
2021/06/24 05:09:24;;;;;;;32.40;19.30;;;16.90;78.50;;;;;;5035274;28;20398;-76
2021/06/24 05:11:50;;;;;;;35.25;18.70;;;17.00;77.40;;;;;;5037718;28;20379;-76
2021/06/24 05:14:15;;;;;;;42.60;25.60;;;17.00;77.30;;;;;;5039202;28;20399;-77
2021/06/24 05:16:41;;;;;;;27.57;18.77;;;17.00;78.20;;;;;;5037498;28;20390;-76
2021/06/24 05:19:08;;;;;;;27.87;17.90;;;17.10;77.60;;;;;;5034700;28;20430;-76
2021/06/24 05:21:34;;;;;;;35.50;19.60;;;17.20;75.70;;;;;;5032931;28;20387;-76
2021/06/24 05:23:59;;;;;;;33.87;19.77;;;17.30;74.90;;;;;;5034005;28;20474;-76
2021/06/24 05:26:25;;;;;;;27.27;19.20;;;17.20;74.30;;;;;;5035168;28;20462;-75
2021/06/24 05:28:50;;;;;;;30.83;19.83;;;17.20;74.50;;;;;;5036447;28;20907;-76
2021/06/24 05:31:16;;;;;;;32.30;18.33;;;17.20;75.30;;;;;;5036732;28;20474;-76
2021/06/24 05:33:42;;;;;;;38.63;19.20;;;17.10;75.40;;;;;;5036595;28;20421;-77
2021/06/24 05:36:07;;;;;;;28.37;18.30;;;17.10;77.40;;;;;;5058886;28;20422;-78
2021/06/24 05:38:33;;;;;;;34.43;19.80;;;17.00;77.10;;;;;;5039469;28;20391;-75
2021/06/24 05:40:59;;;;;;;33.53;19.27;;;16.90;79.30;;;;;;5035057;28;20481;-75
2021/06/24 05:43:25;;;;;;;34.72;19.15;;;16.90;77.80;;;;;;5034010;28;20867;-76
2021/06/24 05:45:50;;;;;;;27.85;19.05;;;16.90;78.60;;;;;;5035459;28;20395;-76
2021/06/24 05:48:16;;;;;;;33.92;18.35;;;17.00;77.40;;;;;;5036600;28;20452;-77
2021/06/24 05:50:42;;;;;;;26.95;18.20;;;17.10;77.50;;;;;;5037483;28;20399;-76
2021/06/24 05:53:08;;;;;;;30.83;18.70;;;17.10;76.10;;;;;;5035227;28;20458;-76
2021/06/24 05:55:47;;;;;;;30.83;18.70;;;17.20;75.60;;;;;;5035320;28;20398;-76
2021/06/24 05:58:14;;;;;;;31.55;18.73;;;17.20;75.20;;;;;;5035944;28;20406;-76
2021/06/24 06:00:41;;;;;;;32.80;19.10;;;17.20;74.70;;;;;;5034424;28;20399;-76
2021/06/24 06:03:06;;;;;;;31.73;19.50;;;17.20;74.40;;;;;;5035956;28;20529;-76
2021/06/24 06:05:33;;;;;;;30.50;19.38;;;17.30;75.20;;;;;;5059612;28;20431;-74
2021/06/24 06:07:59;;;;;;;35.45;20.20;;;17.40;72.80;;;;;;5065378;28;20389;-76
2021/06/24 06:10:25;;;;;;;33.08;19.30;;;17.30;74.30;;;;;;5061636;28;20424;-77
2021/06/24 06:12:51;;;;;;;34.38;20.23;;;17.30;74.90;;;;;;5053124;28;20739;-76
2021/06/24 06:15:16;;;;;;;35.30;20.23;;;17.20;74.60;;;;;;5042465;28;20421;-75
2021/06/24 06:17:42;;;;;;;29.70;18.73;;;17.20;75.70;;;;;;5033886;28;20383;-77
2021/06/24 06:20:08;;;;;;;37.77;19.27;;;17.30;74.80;;;;;;5034121;28;20409;-76
2021/06/24 06:22:33;;;;;;;34.90;21.07;;;17.30;75.00;;;;;;5057320;28;20405;-76
2021/06/24 06:25:00;;;;;;;30.50;19.03;;;17.30;74.60;;;;;;5048171;28;20458;-76
2021/06/24 06:27:26;;;;;;;33.33;20.65;;;17.30;75.50;;;;;;5044672;28;20567;-76
2021/06/24 06:29:51;;;;;;;31.35;19.38;;;17.30;74.10;;;;;;5037207;28;20402;-77
2021/06/24 06:32:17;;;;;;;40.05;21.73;;;17.40;75.20;;;;;;5034072;28;20405;-76
2021/06/24 06:34:43;;;;;;;34.47;20.45;;;17.50;73.90;;;;;;5033322;28;20392;-75
2021/06/24 06:37:09;;;;;;;29.60;19.98;;;17.60;73.20;;;;;;5033023;28;20403;-77
2021/06/24 06:39:34;;;;;;;33.17;19.95;;;17.60;70.90;;;;;;5049961;28;20403;-76
2021/06/24 06:42:00;;;;;;;32.33;20.75;;;17.60;71.20;;;;;;5052010;28;20404;-76
2021/06/24 06:44:26;;;;;;;34.60;20.90;;;17.60;72.00;;;;;;5038380;28;20393;-76
2021/06/24 06:46:51;;;;;;;30.93;19.97;;;17.50;71.60;;;;;;5052048;28;20463;-77
2021/06/24 06:49:17;;;;;;;29.97;20.77;;;17.50;72.90;;;;;;5037434;28;20405;-75
2021/06/24 06:51:43;;;;;;;30.83;20.77;;;17.60;73.50;;;;;;5032365;28;20766;-73
2021/06/24 06:54:08;;;;;;;30.02;20.13;;;17.70;71.10;;;;;;5033121;28;20379;-76
2021/06/24 06:56:34;;;;;;;36.00;21.92;;;17.80;71.70;;;;;;5052561;28;20398;-77
2021/06/24 06:59:01;;;;;;;34.63;21.97;;;17.80;70.00;;;;;;5053961;28;20377;-75
2021/06/24 07:01:26;;;;;;;37.90;22.58;;;17.80;70.60;;;;;;5032901;28;20395;-73
2021/06/24 07:03:52;;;;;;;31.13;22.00;;;17.70;69.90;;;;;;5042248;28;20385;-73
2021/06/24 07:06:18;;;;;;;33.97;22.47;;;17.80;69.90;;;;;;5043421;28;20770;-75
2021/06/24 07:08:43;;;;;;;33.70;22.67;;;17.80;70.50;;;;;;5031422;28;20391;-73
2021/06/24 07:11:09;;;;;;;33.33;21.40;;;18.00;68.10;;;;;;5037628;28;20389;-74
2021/06/24 07:13:35;;;;;;;39.92;23.35;;;17.90;68.30;;;;;;5051903;28;20397;-73
2021/06/24 07:16:01;;;;;;;30.90;22.37;;;18.00;67.00;;;;;;5037861;28;20755;-73
2021/06/24 07:18:27;;;;;;;35.10;22.33;;;18.00;65.50;;;;;;5031364;28;20387;-74
2021/06/24 07:20:53;;;;;;;33.55;21.52;;;18.00;66.50;;;;;;5032028;28;20902;-74
2021/06/24 07:23:19;;;;;;;38.60;21.98;;;18.20;67.10;;;;;;5046498;28;20471;-74
2021/06/24 07:25:45;;;;;;;32.13;21.58;;;18.40;65.70;;;;;;5045639;28;20673;-74
2021/06/24 07:28:11;;;;;;;38.40;21.63;;;18.50;61.40;;;;;;5032094;28;20445;-74
2021/06/24 07:30:37;;;;;;;27.35;20.30;;;18.40;61.60;;;;;;5031328;28;20448;-75
2021/06/24 07:33:03;;;;;;;33.10;21.30;;;18.40;62.60;;;;;;5031987;28;20392;-76
2021/06/24 07:35:28;;;;;;;34.30;22.00;;;18.50;62.00;;;;;;5031878;28;20399;-74
2021/06/24 07:37:54;;;;;;;37.47;22.43;;;18.80;59.10;;;;;;5047783;28;20480;-75
2021/06/24 07:40:20;;;;;;;30.17;20.30;;;19.10;57.20;;;;;;5035337;28;20390;-74
2021/06/24 07:42:46;;;;;;;28.87;21.10;;;19.20;55.20;;;;;;5031456;28;20395;-74
2021/06/24 07:45:12;;;;;;;36.95;22.73;;;19.30;54.40;;;;;;5031917;28;20417;-73
2021/06/24 07:47:37;;;;;;;33.85;22.73;;;19.30;53.00;;;;;;5031440;28;20446;-74
2021/06/24 07:50:04;;;;;;;40.13;22.35;;;19.30;53.40;;;;;;5033010;28;20383;-72
2021/06/24 07:52:30;;;;;;;35.90;21.53;;;19.60;51.20;;;;;;5031552;28;20485;-74
2021/06/24 07:54:55;;;;;;;32.03;21.47;;;19.70;49.30;;;;;;5031263;28;20429;-73
2021/06/24 07:57:21;;;;;;;33.90;21.77;;;19.70;50.10;;;;;;5052021;28;20405;-72
2021/06/24 07:59:47;;;;;;;36.70;22.00;;;19.50;50.30;;;;;;5055807;28;20381;-74
2021/06/24 08:02:13;;;;;;;35.40;21.10;;;19.60;51.50;;;;;;5035747;28;20389;-73
2021/06/24 08:04:38;;;;;;;35.15;22.10;;;19.80;50.20;;;;;;5043967;28;20402;-72
2021/06/24 08:07:04;;;;;;;32.10;21.60;;;19.70;49.70;;;;;;5048589;28;20444;-74
2021/06/24 08:09:30;;;;;;;32.77;21.40;;;19.80;48.50;;;;;;5050279;28;20389;-75
2021/06/24 08:11:56;;;;;;;44.57;22.67;;;20.00;49.10;;;;;;5050284;28;20389;-76
2021/06/24 08:14:23;;;;;;;38.33;21.90;;;20.10;47.20;;;;;;5066209;28;20401;-76
2021/06/24 08:16:49;;;;;;;31.77;21.50;;;20.40;45.90;;;;;;5050195;28;20442;-75
2021/06/24 08:19:14;;;;;;;31.92;22.63;;;20.90;43.60;;;;;;5049712;28;20395;-76
2021/06/24 08:21:40;;;;;;;35.03;21.07;;;20.80;41.60;;;;;;5043333;28;20913;-77
2021/06/24 08:24:06;;;;;;;34.80;21.33;;;20.60;42.30;;;;;;5035651;28;20479;-77
2021/06/24 08:26:32;;;;;;;35.13;21.98;;;20.50;44.10;;;;;;5034854;28;20407;-77
2021/06/24 08:28:58;;;;;;;35.60;22.13;;;21.00;43.00;;;;;;5038746;28;20390;-76
2021/06/24 08:31:24;;;;;;;32.63;22.10;;;21.50;38.50;;;;;;5036951;28;20441;-78
2021/06/24 08:33:49;;;;;;;30.43;22.67;;;21.70;37.10;;;;;;5041799;28;20809;-78
2021/06/24 08:36:15;;;;;;;35.60;21.55;;;21.80;37.50;;;;;;5049192;28;20387;-77
2021/06/24 08:38:41;;;;;;;39.40;22.23;;;22.10;35.70;;;;;;5041447;28;20455;-77
2021/06/24 08:41:06;;;;;;;33.07;21.70;;;22.30;34.90;;;;;;5035418;28;20953;-74
2021/06/24 08:43:32;;;;;;;30.08;21.83;;;22.50;33.70;;;;;;5042357;28;20399;-73
2021/06/24 08:46:02;;;;;;;32.15;21.48;;;22.70;32.30;;;;;;5034074;28;20783;-74
2021/06/24 08:48:33;;;;;;;36.40;22.50;;;23.10;31.70;;;;;;5045134;28;20394;-74
2021/06/24 08:50:58;;;;;;;34.58;22.30;;;23.20;30.00;;;;;;5048674;28;20434;-74
2021/06/24 08:53:25;;;;;;;35.30;22.37;;;23.20;30.00;;;;;;5033853;28;20482;-73
2021/06/24 08:55:53;;;;;;;34.47;22.48;;;23.00;30.00;;;;;;5043043;28;20460;-71
2021/06/24 08:58:20;;;;;;;33.72;22.27;;;22.60;31.30;;;;;;5048927;28;20427;-72
2021/06/24 09:00:45;;;;;;;34.63;22.95;;;22.90;30.90;;;;;;5052485;28;20397;-72
2021/06/24 09:03:28;;;;;;;45.88;22.98;;;22.80;31.40;;;;;;5046225;28;20789;-72
2021/06/24 09:06:08;;;;;;;37.58;22.20;;;23.20;31.60;;;;;;5053377;28;20375;-71
2021/06/24 09:08:53;;;;;;;40.65;24.10;;;23.60;29.10;;;;;;5040877;28;20426;-72
2021/06/24 09:11:26;;;;;;;39.97;24.23;;;23.40;29.50;;;;;;5039848;28;20396;-71
2021/06/24 09:14:04;;;;;;;33.80;22.48;;;24.00;27.00;;;;;;5054205;28;20435;-71
2021/06/24 09:16:32;;;;;;;31.02;22.52;;;23.40;28.30;;;;;;5041088;28;20381;-72
2021/06/24 09:19:20;;;;;;;38.00;23.52;;;23.20;29.70;;;;;;5052235;28;20790;-73
2021/06/24 09:21:53;;;;;;;32.92;23.10;;;23.20;30.40;;;;;;5053816;28;20399;-72
2021/06/24 09:24:25;;;;;;;32.75;22.42;;;23.20;30.20;;;;;;5035798;28;20832;-72
2021/06/24 09:26:51;;;;;;;34.10;23.20;;;23.70;28.60;;;;;;5032963;28;20907;-72
2021/06/24 09:29:18;;;;;;;32.80;23.38;;;23.30;29.70;;;;;;5033748;28;20490;-72
2021/06/24 09:31:47;;;;;;;41.03;24.58;;;22.90;31.40;;;;;;5033420;28;20806;-72
2021/06/24 09:34:13;;;;;;;37.17;23.97;;;23.00;30.60;;;;;;5033424;28;20390;-72
2021/06/24 09:36:41;;;;;;;31.70;21.90;;;23.30;30.00;;;;;;5033185;28;20379;-70
2021/06/24 09:39:29;;;;;;;35.50;24.70;;;23.60;29.00;;;;;;5045728;28;20490;-72
2021/06/24 09:42:08;;;;;;;35.10;24.23;;;23.50;28.80;;;;;;5041976;28;20409;-72
2021/06/24 09:44:35;;;;;;;33.70;22.13;;;23.40;29.40;;;;;;5035673;28;20759;-72
2021/06/24 09:47:16;;;;;;;37.05;23.33;;;23.20;29.20;;;;;;5032750;28;20890;-74
2021/06/24 09:49:42;;;;;;;34.63;24.35;;;23.30;29.90;;;;;;5032660;28;20391;-74
2021/06/24 09:52:08;;;;;;;36.15;23.50;;;23.60;28.60;;;;;;5030924;28;20410;-75
2021/06/24 09:54:37;;;;;;;38.07;24.27;;;24.00;27.00;;;;;;5032648;28;20399;-74
2021/06/24 09:57:05;;;;;;;35.03;25.77;;;24.20;26.80;;;;;;5031074;28;20445;-76
2021/06/24 09:59:40;;;;;;;37.15;24.40;;;24.40;25.20;;;;;;5047864;28;20397;-75
2021/06/24 10:02:11;;;;;;;29.02;22.15;;;24.20;24.90;;;;;;5052277;28;20396;-75
2021/06/24 10:04:39;;;;;;;32.28;23.63;;;24.20;24.20;;;;;;5039115;28;20407;-75
2021/06/24 10:07:09;;;;;;;36.20;25.75;;;23.80;25.80;;;;;;5063705;28;20406;-75
2021/06/24 10:09:38;;;;;;;36.10;23.20;;;23.30;27.30;;;;;;5038245;28;20480;-76
2021/06/24 10:12:04;;;;;;;35.38;24.02;;;23.50;27.60;;;;;;5046175;28;20450;-75
2021/06/24 10:14:30;;;;;;;38.28;25.42;;;23.50;26.90;;;;;;5037922;28;20395;-74
2021/06/24 10:16:58;;;;;;;38.60;25.17;;;23.20;27.60;;;;;;5032591;28;20391;-77
2021/06/24 10:19:32;;;;;;;36.20;24.92;;;23.00;28.20;;;;;;5046254;28;20917;-77
2021/06/24 10:22:19;;;;;;;31.77;24.02;;;23.40;28.60;;;;;;5052572;28;20417;-78
2021/06/24 10:25:04;;;;;;;35.55;23.77;;;23.80;25.90;;;;;;5053815;28;20869;-76
2021/06/24 10:27:38;;;;;;;32.03;22.52;;;23.70;27.00;;;;;;5054258;28;20455;-77
2021/06/24 10:30:18;;;;;;;31.80;23.50;;;23.90;26.20;;;;;;5042303;28;20393;-76
2021/06/24 10:33:01;;;;;;;34.10;23.50;;;24.10;25.60;;;;;;5065867;28;20393;-77
2021/06/24 10:35:41;;;;;;;32.25;22.00;;;24.50;23.80;;;;;;5053500;28;20377;-77
2021/06/24 10:38:08;;;;;;;28.63;21.98;;;24.70;22.90;;;;;;5043410;28;20754;-77
2021/06/24 10:40:36;;;;;;;28.75;21.92;;;24.70;22.20;;;;;;5068479;28;20409;-77
2021/06/24 10:43:10;;;;;;;37.22;24.25;;;24.50;23.20;;;;;;5052857;28;20393;-76
2021/06/24 10:45:36;;;;;;;37.97;23.00;;;24.30;24.20;;;;;;5033590;28;20847;-79
2021/06/24 10:48:24;;;;;;;33.60;22.77;;;24.20;25.00;;;;;;5049611;28;20482;-77
2021/06/24 10:51:03;;;;;;;30.83;21.67;;;24.30;25.50;;;;;;5050393;28;20385;-76
2021/06/24 10:53:29;;;;;;;28.85;22.77;;;24.30;23.30;;;;;;5034798;28;20455;-76
2021/06/24 10:55:55;;;;;;;32.73;21.37;;;24.60;22.70;;;;;;5051280;28;20412;-77
2021/06/24 10:58:20;;;;;;;36.75;22.50;;;24.70;21.60;;;;;;5032469;28;20391;-78
2021/06/24 11:00:52;;;;;;;26.52;19.60;;;24.90;20.90;;;;;;5032064;28;20402;-77
2021/06/24 11:03:30;;;;;;;23.85;19.10;;;25.10;20.40;;;;;;5035028;28;20388;-76
2021/06/24 11:06:08;;;;;;;29.50;17.83;;;25.30;19.70;;;;;;5032197;28;20445;-76
2021/06/24 11:08:34;;;;;;;27.35;16.42;;;25.50;18.40;;;;;;5039349;28;20435;-75
2021/06/24 11:11:01;;;;;;;27.20;18.00;;;25.70;17.90;;;;;;5060903;28;20481;-76
2021/06/24 11:13:36;;;;;;;23.30;15.80;;;26.00;17.70;;;;;;5043504;28;20394;-76
2021/06/24 11:16:19;;;;;;;21.10;16.00;;;26.50;17.40;;;;;;5034944;28;20387;-75
2021/06/24 11:18:58;;;;;;;21.27;16.35;;;26.70;16.00;;;;;;5040198;28;20398;-76
2021/06/24 11:21:31;;;;;;;21.67;15.77;;;26.80;15.10;;;;;;5030969;28;20529;-76
2021/06/24 11:24:00;;;;;;;21.23;15.10;;;26.90;14.20;;;;;;5042215;28;20405;-77
2021/06/24 11:26:26;;;;;;;21.90;16.70;;;26.80;13.80;;;;;;5042770;28;20464;-76
2021/06/24 11:28:57;;;;;;;26.55;18.38;;;26.70;14.70;;;;;;5051568;28;20433;-76
2021/06/24 11:31:55;;;;;;;22.88;18.05;;;27.10;14.80;;;;;;5043274;28;20394;-75
2021/06/24 11:34:57;;;;;;;23.45;18.23;;;27.20;13.50;;;;;;5051593;28;20397;-75
2021/06/24 11:37:28;;;;;;;22.65;16.48;;;27.20;13.90;;;;;;5024798;28;20903;-76
2021/06/24 11:39:58;;;;;;;25.35;16.70;;;26.80;13.70;;;;;;5052448;28;20574;-74
2021/06/24 11:42:36;;;;;;;25.08;16.40;;;26.50;14.50;;;;;;5049902;28;20397;-75
2021/06/24 11:45:04;;;;;;;24.45;17.33;;;26.10;15.80;;;;;;5042615;28;20437;-75
2021/06/24 11:47:33;;;;;;;24.98;20.63;;;25.80;16.20;;;;;;5045834;28;20419;-76
2021/06/24 12:01:54;;;;;;;26.45;20.10;;;24.10;20.40;;;;;;5046168;28;20391;-77
2021/06/24 12:04:31;;;;;;;25.40;19.70;;;23.90;20.90;;;;;;5052083;28;20404;-74
2021/06/24 12:06:59;;;;;;;25.30;19.33;;;23.80;19.90;;;;;;5045920;28;20409;-75
2021/06/24 12:09:49;;;;;;;31.33;21.00;;;23.50;20.90;;;;;;5050492;28;20427;-76
2021/06/24 12:12:22;;;;;;;24.45;19.02;;;23.10;22.20;;;;;;5042469;28;20429;-78
2021/06/24 12:14:50;;;;;;;26.13;19.80;;;23.00;23.30;;;;;;5050727;28;20560;-75
2021/06/24 12:17:25;;;;;;;30.15;21.98;;;23.10;22.70;;;;;;5055189;28;20892;-77
2021/06/24 12:20:05;;;;;;;30.33;21.10;;;23.00;22.60;;;;;;5052929;28;20409;-76
2021/06/24 12:22:38;;;;;;;30.55;22.17;;;22.60;24.10;;;;;;5052428;28;20810;-75
2021/06/24 12:25:22;;;;;;;28.38;21.05;;;22.50;24.40;;;;;;5054114;28;20381;-77
2021/06/24 12:27:51;;;;;;;25.63;18.55;;;22.60;24.30;;;;;;5054277;28;20878;-76
2021/06/24 12:30:19;;;;;;;25.77;17.60;;;22.90;24.00;;;;;;5053596;28;20466;-76
2021/06/24 12:32:49;;;;;;;22.77;16.50;;;23.30;23.80;;;;;;5054006;28;20389;-75
2021/06/24 12:35:31;;;;;;;21.70;15.60;;;23.60;22.80;;;;;;5053148;28;20382;-75
2021/06/24 12:38:03;;;;;;;24.90;15.80;;;23.90;21.70;;;;;;5054366;28;20416;-75
2021/06/24 12:40:38;;;;;;;22.35;16.13;;;24.40;20.50;;;;;;5054646;28;20510;-75
2021/06/24 12:43:06;;;;;;;32.60;16.38;;;24.70;20.00;;;;;;5070997;28;20770;-77
2021/06/24 12:45:35;;;;;;;21.17;16.17;;;25.00;19.20;;;;;;5056609;28;20404;-76